Time;durP1;ratioP1;P1;durP2;ratioP2;P2;SDS_P1;SDS_P2;PMS_P1;PMS_P2;Temp;Humidity;BMP_temperature;BMP_pressure;BME280_temperature;BME280_humidity;BME280_pressure;Samples;Min_cycle;Max_cycle;Signal;HPM_P1;HPM_P2
2024/03/07 00:00:35;;;;;;;39.97;27.15;;;7.00;99.90;;;;;;5016994;28;20057;-88
2024/03/07 00:03:01;;;;;;;43.35;29.23;;;7.00;99.90;;;;;;5033231;28;20037;-89
2024/03/07 00:05:27;;;;;;;44.30;29.17;;;7.00;99.90;;;;;;5034822;28;20036;-89
2024/03/07 00:07:53;;;;;;;39.65;27.58;;;6.90;99.90;;;;;;5018094;28;20033;-88
2024/03/07 00:10:21;;;;;;;48.40;29.67;;;7.00;99.90;;;;;;5037310;28;20075;-88
2024/03/07 00:12:47;;;;;;;44.20;29.30;;;6.90;99.90;;;;;;5038499;28;20469;-88
2024/03/07 00:15:14;;;;;;;40.67;26.83;;;6.90;99.90;;;;;;5036948;28;20030;-88
2024/03/07 00:17:40;;;;;;;44.72;29.05;;;6.90;99.90;;;;;;5037211;28;20029;-87
2024/03/07 00:20:13;;;;;;;44.08;29.15;;;6.90;99.90;;;;;;5037171;28;20065;-88
2024/03/07 00:22:41;;;;;;;47.35;29.48;;;6.80;99.90;;;;;;5038028;28;20132;-88
2024/03/07 00:25:09;;;;;;;42.95;28.40;;;6.80;99.90;;;;;;5020882;28;20086;-88
2024/03/07 00:27:38;;;;;;;41.88;29.13;;;6.80;99.90;;;;;;5020716;28;20041;-87
2024/03/07 00:30:05;;;;;;;44.95;30.30;;;6.80;99.90;;;;;;5036907;28;20466;-88
2024/03/07 00:32:35;;;;;;;47.42;29.48;;;6.70;99.90;;;;;;5020364;28;20030;-88
2024/03/07 00:35:04;;;;;;;43.90;29.75;;;6.70;99.90;;;;;;5021151;28;20034;-88
2024/03/07 00:37:33;;;;;;;43.03;28.40;;;6.70;99.90;;;;;;5020712;28;20297;-87
2024/03/07 00:39:59;;;;;;;44.08;28.73;;;6.70;99.90;;;;;;5021058;28;20057;-88
2024/03/07 00:42:24;;;;;;;43.80;30.10;;;6.70;99.90;;;;;;5038637;28;20088;-88
2024/03/07 00:44:50;;;;;;;43.20;29.90;;;6.60;99.90;;;;;;5023157;28;20030;-88
2024/03/07 00:47:18;;;;;;;42.88;28.95;;;6.60;99.90;;;;;;5035480;28;20034;-86
2024/03/07 00:49:48;;;;;;;42.85;28.52;;;6.60;99.90;;;;;;5026674;28;20037;-86
2024/03/07 00:52:14;;;;;;;43.42;29.35;;;6.60;99.90;;;;;;5043074;28;20022;-85
2024/03/07 00:54:40;;;;;;;41.78;28.40;;;6.60;99.90;;;;;;5058958;28;20100;-88
2024/03/07 00:57:07;;;;;;;46.05;30.15;;;6.60;99.90;;;;;;5050648;28;20033;-88
2024/03/07 00:59:33;;;;;;;44.85;29.77;;;6.60;99.90;;;;;;5038969;28;20109;-88
2024/03/07 01:01:59;;;;;;;44.90;30.05;;;6.60;99.90;;;;;;5016079;28;20036;-88
2024/03/07 01:04:30;;;;;;;42.30;29.30;;;6.60;99.90;;;;;;5003400;28;20029;-87
2024/03/07 01:06:59;;;;;;;49.15;31.77;;;6.60;99.90;;;;;;5020039;28;20124;-87
2024/03/07 01:09:28;;;;;;;46.70;31.02;;;6.50;99.90;;;;;;5037249;28;20070;-88
2024/03/07 01:11:54;;;;;;;48.42;30.23;;;6.50;99.90;;;;;;5012428;28;20052;-87
2024/03/07 01:14:21;;;;;;;45.30;30.08;;;6.50;99.90;;;;;;5036417;28;20077;-87
2024/03/07 01:16:49;;;;;;;44.63;28.73;;;6.50;99.90;;;;;;5019006;28;20499;-89
2024/03/07 01:19:15;;;;;;;47.97;31.65;;;6.50;99.90;;;;;;5022083;28;20436;-89
2024/03/07 01:21:41;;;;;;;46.22;31.40;;;6.50;99.90;;;;;;5041203;28;20073;-89
2024/03/07 01:24:06;;;;;;;45.60;30.58;;;6.50;99.90;;;;;;5035756;28;20044;-87
2024/03/07 01:26:35;;;;;;;44.58;29.77;;;6.50;99.90;;;;;;5035938;28;20071;-87
2024/03/07 01:29:01;;;;;;;43.83;28.98;;;6.50;99.90;;;;;;5050266;28;20025;-88
2024/03/07 01:31:27;;;;;;;46.72;30.92;;;6.40;99.90;;;;;;5037094;28;20059;-88
2024/03/07 01:33:54;;;;;;;43.35;30.00;;;6.40;99.90;;;;;;5035640;28;20053;-88
2024/03/07 01:36:20;;;;;;;47.03;32.30;;;6.40;99.90;;;;;;5015693;28;20038;-89
2024/03/07 01:38:46;;;;;;;48.30;32.00;;;6.40;99.90;;;;;;5007748;28;20060;-89
2024/03/07 01:41:12;;;;;;;48.75;32.88;;;6.40;99.90;;;;;;5022336;28;20476;-89
2024/03/07 01:43:37;;;;;;;50.80;32.92;;;6.30;99.90;;;;;;5007792;28;20033;-89
2024/03/07 01:46:04;;;;;;;49.40;31.92;;;6.30;99.90;;;;;;5011739;28;20037;-89
2024/03/07 01:48:31;;;;;;;49.83;33.35;;;6.30;99.90;;;;;;5015409;28;20026;-88
2024/03/07 01:51:00;;;;;;;49.60;32.65;;;6.30;99.90;;;;;;5027301;28;20060;-89
2024/03/07 01:53:28;;;;;;;52.72;34.88;;;6.30;99.90;;;;;;5039260;28;20120;-88
2024/03/07 01:55:54;;;;;;;52.22;33.90;;;6.20;99.90;;;;;;5052617;28;20124;-88
2024/03/07 01:58:21;;;;;;;50.20;34.38;;;6.20;99.90;;;;;;5019027;28;20072;-87
2024/03/07 02:00:47;;;;;;;51.25;32.88;;;6.20;99.90;;;;;;5018897;28;20620;-87
2024/03/07 02:03:14;;;;;;;48.30;32.83;;;6.10;99.90;;;;;;5019535;28;20061;-89
2024/03/07 02:05:43;;;;;;;48.50;32.08;;;6.10;99.90;;;;;;5021942;28;20056;-87
2024/03/07 02:08:11;;;;;;;47.28;33.00;;;6.10;99.90;;;;;;5017062;28;20034;-87
2024/03/07 02:10:37;;;;;;;53.42;33.90;;;6.10;99.90;;;;;;5035336;28;20021;-88
2024/03/07 02:13:03;;;;;;;47.08;31.42;;;6.20;99.90;;;;;;5023726;28;20052;-88
2024/03/07 02:15:29;;;;;;;48.55;31.73;;;6.10;99.90;;;;;;5056398;28;20030;-86
2024/03/07 02:17:55;;;;;;;47.60;32.22;;;6.10;99.90;;;;;;5044806;28;20034;-87
2024/03/07 02:20:20;;;;;;;48.60;32.55;;;6.10;99.90;;;;;;5057452;28;20045;-88
2024/03/07 02:22:50;;;;;;;52.13;34.35;;;6.10;99.90;;;;;;5038863;28;20049;-88
2024/03/07 02:25:16;;;;;;;51.90;32.22;;;6.10;99.90;;;;;;5003508;28;20251;-88
2024/03/07 02:27:42;;;;;;;49.63;31.02;;;6.10;99.90;;;;;;5045222;28;20373;-87
2024/03/07 02:30:08;;;;;;;48.85;30.90;;;6.10;99.90;;;;;;5011487;28;20037;-90
2024/03/07 02:32:38;;;;;;;46.65;31.33;;;6.10;99.90;;;;;;5033687;28;20392;-88
2024/03/07 02:35:05;;;;;;;50.55;32.55;;;6.10;99.90;;;;;;5035351;28;20036;-88
2024/03/07 02:37:31;;;;;;;52.10;32.80;;;6.10;99.90;;;;;;5017460;28;20094;-90
2024/03/07 02:39:57;;;;;;;51.47;32.78;;;6.10;99.90;;;;;;5025903;28;20049;-89
2024/03/07 02:42:22;;;;;;;51.97;34.65;;;6.00;99.90;;;;;;5009144;28;20485;-89
2024/03/07 02:44:48;;;;;;;55.97;36.45;;;6.00;99.90;;;;;;5017324;28;20037;-88
2024/03/07 02:47:14;;;;;;;50.13;32.92;;;6.00;99.90;;;;;;5049210;28;20025;-88
2024/03/07 02:49:40;;;;;;;53.78;34.40;;;5.90;99.90;;;;;;5011000;28;20102;-87
2024/03/07 02:52:07;;;;;;;56.38;35.03;;;5.90;99.90;;;;;;5034784;28;20033;-89
2024/03/07 02:54:33;;;;;;;57.75;37.88;;;6.00;99.90;;;;;;5017368;28;20413;-89
2024/03/07 02:56:59;;;;;;;57.33;34.95;;;5.90;99.90;;;;;;5050509;28;20025;-88
2024/03/07 02:59:25;;;;;;;54.85;35.70;;;5.90;99.90;;;;;;5034730;28;20021;-87
2024/03/07 03:01:50;;;;;;;48.33;32.95;;;5.90;99.90;;;;;;5012746;28;20108;-87
2024/03/07 03:04:17;;;;;;;52.60;33.50;;;5.90;99.90;;;;;;5000560;28;20029;-87
2024/03/07 03:06:43;;;;;;;51.55;33.97;;;5.90;99.90;;;;;;5028227;28;20124;-87
2024/03/07 03:09:13;;;;;;;50.65;33.60;;;5.90;99.90;;;;;;5037154;28;20055;-88
2024/03/07 03:11:39;;;;;;;55.10;34.17;;;5.80;99.90;;;;;;5007906;28;20053;-89
2024/03/07 03:14:05;;;;;;;49.22;34.92;;;5.90;99.90;;;;;;5013982;28;20056;-89
2024/03/07 03:16:33;;;;;;;51.90;33.60;;;5.80;99.90;;;;;;5017120;28;20109;-89
2024/03/07 03:18:59;;;;;;;49.10;32.13;;;5.90;99.90;;;;;;5017355;28;20029;-88
2024/03/07 03:21:24;;;;;;;48.30;31.60;;;5.80;99.90;;;;;;5017223;28;20052;-88
2024/03/07 03:23:54;;;;;;;53.03;32.47;;;5.90;99.90;;;;;;5033681;28;20500;-88
2024/03/07 03:26:21;;;;;;;48.92;31.45;;;5.90;99.90;;;;;;5016959;28;20029;-89
2024/03/07 03:28:47;;;;;;;49.92;32.38;;;5.90;99.90;;;;;;5042886;28;20098;-87
2024/03/07 03:31:13;;;;;;;48.72;31.98;;;5.90;99.90;;;;;;5034089;28;20100;-87
2024/03/07 03:33:40;;;;;;;50.00;31.00;;;5.90;99.90;;;;;;5034658;28;20100;-88
2024/03/07 03:36:07;;;;;;;51.53;34.22;;;5.80;99.90;;;;;;5024291;28;20037;-88
2024/03/07 03:38:32;;;;;;;49.25;33.30;;;5.90;99.90;;;;;;5066641;28;20028;-88
2024/03/07 03:40:58;;;;;;;47.47;31.52;;;5.90;99.90;;;;;;5039806;28;20010;-87
2024/03/07 03:43:24;;;;;;;48.03;32.35;;;5.90;99.90;;;;;;5039120;28;20050;-87
2024/03/07 03:45:50;;;;;;;56.65;35.83;;;5.80;99.90;;;;;;5021605;28;20037;-88
2024/03/07 03:48:15;;;;;;;50.53;34.15;;;5.80;99.90;;;;;;5033684;28;20079;-89
2024/03/07 03:50:41;;;;;;;53.13;34.50;;;5.80;99.90;;;;;;5025648;28;20436;-89
2024/03/07 03:53:07;;;;;;;57.75;36.45;;;5.80;99.90;;;;;;5002749;28;20425;-89
2024/03/07 03:55:34;;;;;;;54.33;35.38;;;5.70;99.90;;;;;;4997043;28;20029;-88
2024/03/07 03:57:59;;;;;;;57.83;36.65;;;5.70;99.90;;;;;;5021802;28;20473;-88
2024/03/07 04:00:25;;;;;;;57.45;36.22;;;5.70;99.90;;;;;;5019980;28;20036;-87
2024/03/07 04:02:51;;;;;;;53.53;35.35;;;5.70;99.90;;;;;;4999614;28;20036;-87
2024/03/07 04:05:19;;;;;;;58.10;35.65;;;5.60;99.90;;;;;;5016405;28;20512;-88
2024/03/07 04:07:45;;;;;;;53.58;35.20;;;5.70;99.90;;;;;;5033716;28;20470;-88
2024/03/07 04:10:11;;;;;;;48.35;33.00;;;5.60;99.90;;;;;;5049622;28;20070;-88
2024/03/07 04:12:39;;;;;;;55.47;34.65;;;5.60;99.90;;;;;;5032637;28;20061;-88
2024/03/07 04:15:10;;;;;;;54.65;34.47;;;5.70;99.90;;;;;;5034048;28;20549;-88
2024/03/07 04:17:36;;;;;;;53.95;36.47;;;5.70;99.90;;;;;;5033863;28;20481;-88
2024/03/07 04:20:06;;;;;;;55.00;34.70;;;5.60;99.90;;;;;;5016163;28;20032;-89
2024/03/07 04:22:38;;;;;;;53.33;35.95;;;5.60;99.90;;;;;;5032388;28;20493;-89
2024/03/07 04:25:06;;;;;;;55.28;35.28;;;5.60;99.90;;;;;;5032450;28;20083;-89
2024/03/07 04:27:36;;;;;;;58.05;36.10;;;5.60;99.90;;;;;;5043460;28;20032;-89
2024/03/07 04:30:03;;;;;;;54.65;35.00;;;5.60;99.90;;;;;;5016680;28;20017;-88
2024/03/07 04:32:30;;;;;;;57.78;37.17;;;5.50;99.90;;;;;;5032896;28;20025;-87
2024/03/07 04:34:58;;;;;;;52.58;34.85;;;5.50;99.90;;;;;;5015804;28;20021;-87
2024/03/07 04:37:24;;;;;;;56.38;34.63;;;5.50;99.90;;;;;;5016194;28;20033;-88
2024/03/07 04:39:50;;;;;;;53.20;34.75;;;5.50;99.90;;;;;;5032490;28;20029;-88
2024/03/07 04:42:15;;;;;;;55.90;35.30;;;5.50;99.90;;;;;;5017425;28;20039;-88
2024/03/07 04:44:41;;;;;;;53.45;34.63;;;5.50;99.90;;;;;;4982096;28;20394;-87
2024/03/07 04:47:07;;;;;;;56.05;35.53;;;5.50;99.90;;;;;;4998778;28;20458;-88
2024/03/07 04:49:34;;;;;;;60.28;38.45;;;5.50;99.90;;;;;;5013155;28;20025;-89
2024/03/07 04:52:02;;;;;;;56.03;36.72;;;5.40;99.90;;;;;;4982223;28;20026;-87
2024/03/07 04:54:29;;;;;;;49.88;33.88;;;5.40;99.90;;;;;;5033179;28;20031;-86
2024/03/07 04:56:55;;;;;;;57.42;35.38;;;5.40;99.90;;;;;;5038371;28;20022;-87
2024/03/07 04:59:22;;;;;;;54.25;34.92;;;5.30;99.90;;;;;;5055752;28;20033;-86
2024/03/07 05:01:52;;;;;;;54.97;35.15;;;5.40;99.90;;;;;;5065314;28;20022;-83
2024/03/07 05:04:18;;;;;;;53.95;34.95;;;5.30;99.90;;;;;;5059616;28;20109;-85
2024/03/07 05:06:47;;;;;;;51.72;33.15;;;5.30;99.90;;;;;;5056599;28;20036;-87
2024/03/07 05:09:21;;;;;;;50.35;33.15;;;5.40;99.90;;;;;;5035697;28;20029;-86
2024/03/07 05:11:47;;;;;;;55.47;35.97;;;5.40;99.90;;;;;;5036207;28;20053;-87
2024/03/07 05:14:12;;;;;;;54.25;35.85;;;5.40;99.90;;;;;;5035676;28;20389;-89
2024/03/07 05:16:38;;;;;;;51.97;34.38;;;5.30;99.90;;;;;;5016115;28;20444;-87
2024/03/07 05:19:05;;;;;;;53.28;34.30;;;5.30;99.90;;;;;;5035226;28;20040;-88
2024/03/07 05:24:05;;;;;;;52.08;34.42;;;5.20;99.90;;;;;;5034957;28;20132;-86
2024/03/07 05:26:42;;;;;;;48.63;33.03;;;5.20;99.90;;;;;;5042393;28;20029;-87
2024/03/07 05:29:09;;;;;;;53.40;33.80;;;5.20;99.90;;;;;;5040985;28;20107;-88
2024/03/07 05:31:44;;;;;;;57.67;36.42;;;5.20;99.90;;;;;;5016426;28;20022;-89
2024/03/07 05:34:09;;;;;;;53.95;34.75;;;5.20;99.90;;;;;;5026347;28;20075;-89
2024/03/07 05:36:35;;;;;;;50.78;34.13;;;5.20;99.90;;;;;;5036210;28;20104;-91
2024/03/07 05:39:10;;;;;;;61.83;37.50;;;5.10;99.90;;;;;;5025904;28;20029;-89
2024/03/07 05:41:36;;;;;;;54.25;35.83;;;5.10;99.90;;;;;;5032138;28;20026;-90
2024/03/07 05:44:02;;;;;;;58.17;35.95;;;5.10;99.90;;;;;;5028008;28;20036;-90
2024/03/07 05:46:28;;;;;;;52.70;34.97;;;5.00;99.90;;;;;;4988840;28;20030;-89
2024/03/07 05:48:56;;;;;;;49.92;34.40;;;5.00;99.90;;;;;;5043092;28;20030;-88
2024/03/07 05:51:23;;;;;;;51.58;33.45;;;5.00;99.90;;;;;;4999679;28;20034;-88
2024/03/07 05:53:49;;;;;;;50.47;32.45;;;5.00;99.90;;;;;;5032790;28;20473;-86
2024/03/07 05:56:15;;;;;;;46.72;32.40;;;5.00;99.90;;;;;;5015897;28;20358;-89
2024/03/07 05:58:41;;;;;;;53.00;33.70;;;5.00;99.90;;;;;;5041979;28;20104;-87
2024/03/07 06:01:08;;;;;;;51.10;33.22;;;5.10;99.90;;;;;;5003613;28;20068;-88
2024/03/07 06:03:34;;;;;;;53.38;33.70;;;5.10;99.90;;;;;;5018829;28;20060;-88
2024/03/07 06:06:00;;;;;;;51.53;33.40;;;5.00;99.90;;;;;;4994192;28;20553;-89
2024/03/07 06:08:27;;;;;;;50.95;33.20;;;5.00;99.90;;;;;;5027477;28;20029;-89
2024/03/07 06:10:52;;;;;;;51.33;33.08;;;5.00;99.90;;;;;;5020787;28;20075;-90
2024/03/07 06:13:19;;;;;;;49.15;31.95;;;5.00;99.90;;;;;;5035922;28;20022;-90
2024/03/07 06:15:46;;;;;;;48.30;32.38;;;5.00;99.90;;;;;;5044090;28;20481;-91
2024/03/07 06:18:14;;;;;;;47.75;32.55;;;5.00;99.90;;;;;;5035079;28;20511;-90
2024/03/07 06:20:41;;;;;;;46.10;30.88;;;5.00;99.90;;;;;;5053964;28;20012;-88
2024/03/07 06:23:07;;;;;;;47.40;30.80;;;5.00;99.90;;;;;;5037542;28;20049;-86
2024/03/07 06:25:36;;;;;;;46.15;30.92;;;5.00;99.90;;;;;;5052338;28;20014;-91
2024/03/07 06:28:09;;;;;;;48.22;31.42;;;5.00;99.90;;;;;;5020340;28;20025;-89
2024/03/07 06:30:36;;;;;;;50.78;33.30;;;5.10;99.90;;;;;;5039283;28;20087;-90
2024/03/07 06:33:02;;;;;;;48.63;31.83;;;5.10;99.90;;;;;;5021264;28;20393;-88
2024/03/07 06:35:28;;;;;;;45.63;31.17;;;5.00;99.90;;;;;;5018387;28;20034;-89
2024/03/07 06:37:54;;;;;;;48.05;31.85;;;5.00;99.90;;;;;;5051510;28;20033;-89
2024/03/07 06:40:22;;;;;;;46.55;31.02;;;5.00;99.90;;;;;;5017951;28;20041;-89
2024/03/07 06:42:52;;;;;;;54.55;33.97;;;5.00;99.90;;;;;;5034608;28;20017;-91
2024/03/07 06:45:18;;;;;;;47.13;32.05;;;4.90;99.90;;;;;;5018219;28;20392;-91
2024/03/07 06:47:44;;;;;;;48.13;31.35;;;4.90;99.90;;;;;;5028766;28;20113;-89
2024/03/07 06:50:14;;;;;;;48.20;31.38;;;4.90;99.90;;;;;;5017837;28;20049;-89
2024/03/07 06:52:40;;;;;;;48.42;31.55;;;4.90;99.90;;;;;;5034502;28;20021;-90
2024/03/07 06:55:07;;;;;;;45.15;30.23;;;4.90;99.90;;;;;;5017559;28;20037;-88
2024/03/07 06:57:34;;;;;;;43.58;29.60;;;4.90;99.90;;;;;;5035888;28;20066;-92
2024/03/07 07:00:00;;;;;;;43.63;29.42;;;4.90;99.90;;;;;;5028798;28;20106;-90
2024/03/07 07:02:27;;;;;;;42.85;29.48;;;4.90;99.90;;;;;;5034897;28;20029;-90
2024/03/07 07:04:53;;;;;;;51.28;33.75;;;5.00;99.90;;;;;;5034419;28;20025;-91
2024/03/07 07:07:20;;;;;;;45.47;30.33;;;4.90;99.90;;;;;;5017603;28;20030;-89
2024/03/07 07:09:45;;;;;;;47.92;31.73;;;4.80;99.90;;;;;;5040860;28;20083;-89
2024/03/07 07:12:11;;;;;;;48.13;31.80;;;4.80;99.90;;;;;;5049699;28;20034;-89
2024/03/07 07:14:42;;;;;;;47.67;31.85;;;4.90;99.90;;;;;;5021628;28;20128;-90
2024/03/07 07:17:08;;;;;;;48.13;32.67;;;4.80;99.90;;;;;;5023274;28;20030;-89
2024/03/07 07:19:34;;;;;;;52.50;32.58;;;4.80;99.90;;;;;;5036018;28;20404;-89
2024/03/07 07:22:00;;;;;;;40.60;29.13;;;4.80;99.90;;;;;;5017285;28;20017;-90
2024/03/07 07:24:27;;;;;;;43.17;28.52;;;4.80;99.90;;;;;;5017811;28;20029;-89
2024/03/07 07:26:53;;;;;;;44.58;30.17;;;4.80;99.90;;;;;;5003558;28;20068;-91
2024/03/07 07:29:19;;;;;;;48.85;30.63;;;4.80;99.90;;;;;;5025793;28;20030;-89
2024/03/07 07:31:45;;;;;;;40.30;28.55;;;4.80;99.90;;;;;;5017649;28;20033;-89
2024/03/07 07:34:11;;;;;;;42.10;29.00;;;4.80;99.90;;;;;;5034142;28;20029;-89
2024/03/07 07:36:37;;;;;;;47.13;30.83;;;4.90;99.90;;;;;;5034755;28;20037;-89
2024/03/07 07:39:03;;;;;;;44.88;30.65;;;5.00;99.90;;;;;;5036587;28;20041;-89
2024/03/07 07:41:31;;;;;;;40.88;28.70;;;5.00;99.90;;;;;;4999085;28;20065;-91
2024/03/07 07:43:57;;;;;;;39.40;28.25;;;5.00;99.90;;;;;;5023763;28;20101;-88
2024/03/07 07:46:23;;;;;;;40.25;26.92;;;5.10;99.90;;;;;;5022394;28;20052;-90
2024/03/07 07:48:48;;;;;;;43.83;28.73;;;5.10;99.90;;;;;;5030461;28;20035;-89
2024/03/07 07:51:14;;;;;;;40.40;27.98;;;5.10;99.90;;;;;;5027247;28;20036;-89
2024/03/07 07:53:40;;;;;;;36.55;27.08;;;5.20;99.90;;;;;;5017191;28;20171;-91
2024/03/07 07:56:07;;;;;;;41.63;28.23;;;5.20;99.90;;;;;;5017070;28;20079;-88
2024/03/07 07:58:33;;;;;;;41.10;28.27;;;5.20;99.90;;;;;;5033226;28;20034;-87
2024/03/07 08:00:58;;;;;;;40.72;28.08;;;5.30;99.90;;;;;;5016962;28;20524;-90
2024/03/07 08:03:24;;;;;;;39.88;27.10;;;5.30;99.90;;;;;;5016302;28;20067;-88
2024/03/07 08:05:50;;;;;;;37.15;27.70;;;5.30;99.90;;;;;;5017197;28;20076;-92
2024/03/07 08:08:18;;;;;;;35.55;26.05;;;5.30;99.90;;;;;;5000375;28;20030;-89
2024/03/07 08:10:45;;;;;;;37.75;25.48;;;5.40;99.90;;;;;;5034016;28;20018;-89
2024/03/07 08:13:13;;;;;;;34.88;25.50;;;5.40;99.90;;;;;;5044367;28;20500;-89
2024/03/07 08:15:39;;;;;;;36.15;25.35;;;5.40;99.90;;;;;;5036135;28;20021;-90
2024/03/07 08:18:11;;;;;;;33.03;23.88;;;5.50;99.90;;;;;;5036579;28;20087;-89
2024/03/07 08:20:38;;;;;;;36.28;26.08;;;5.50;99.90;;;;;;5019924;28;20047;-88
2024/03/07 08:23:04;;;;;;;30.92;23.13;;;5.50;99.90;;;;;;5016370;28;20084;-88
2024/03/07 08:25:30;;;;;;;31.50;24.17;;;5.50;99.90;;;;;;5016043;28;20046;-89
2024/03/07 08:27:57;;;;;;;34.53;24.60;;;5.50;99.90;;;;;;5016647;28;20052;-90
2024/03/07 08:30:24;;;;;;;33.83;24.30;;;5.50;99.90;;;;;;5034305;28;20045;-89
2024/03/07 08:32:55;;;;;;;30.10;23.67;;;5.60;99.90;;;;;;5044813;28;20025;-91
2024/03/07 08:35:22;;;;;;;33.50;23.95;;;5.50;99.90;;;;;;5050587;28;20079;-88
2024/03/07 08:37:55;;;;;;;32.83;23.65;;;5.50;99.90;;;;;;5036887;28;20497;-89
2024/03/07 08:40:32;;;;;;;30.50;22.88;;;5.50;99.90;;;;;;5020411;28;20036;-89
2024/03/07 08:42:58;;;;;;;32.08;23.85;;;5.60;99.90;;;;;;5038135;28;20492;-91
2024/03/07 08:45:26;;;;;;;31.67;22.63;;;5.60;99.90;;;;;;5023181;28;20057;-89
2024/03/07 08:47:56;;;;;;;30.42;22.15;;;5.60;99.90;;;;;;5037827;28;20030;-89
2024/03/07 08:50:23;;;;;;;32.95;22.80;;;5.70;99.90;;;;;;5020584;28;20032;-91
2024/03/07 08:52:50;;;;;;;28.13;21.30;;;5.70;99.90;;;;;;5036843;28;20091;-90
2024/03/07 08:55:19;;;;;;;27.60;21.60;;;5.80;99.90;;;;;;5036809;28;20021;-91
2024/03/07 08:57:46;;;;;;;33.75;23.45;;;5.80;99.90;;;;;;5020893;28;20026;-89
2024/03/07 09:00:22;;;;;;;27.55;20.70;;;5.90;99.90;;;;;;5037475;28;20025;-89
2024/03/07 09:02:50;;;;;;;27.92;21.10;;;5.90;99.90;;;;;;5038704;28;20083;-89
2024/03/07 09:05:16;;;;;;;29.10;22.20;;;5.90;99.90;;;;;;5046686;28;20063;-90
2024/03/07 09:07:42;;;;;;;31.63;22.45;;;5.90;99.90;;;;;;5060929;28;20034;-87
2024/03/07 09:10:09;;;;;;;29.02;20.98;;;6.00;99.90;;;;;;5057829;28;20123;-91
2024/03/07 09:12:36;;;;;;;25.08;19.67;;;6.00;99.90;;;;;;5043994;28;20018;-90
2024/03/07 09:15:03;;;;;;;27.08;19.27;;;6.10;99.90;;;;;;5021138;28;20493;-89
2024/03/07 09:17:29;;;;;;;25.90;19.85;;;6.20;99.90;;;;;;5036186;28;20018;-91
2024/03/07 09:19:55;;;;;;;27.65;21.17;;;6.30;99.90;;;;;;5040993;28;20036;-90
2024/03/07 09:22:21;;;;;;;28.60;20.70;;;6.40;99.90;;;;;;5053367;28;20075;-91
2024/03/07 09:24:47;;;;;;;26.40;19.70;;;6.40;99.90;;;;;;5019325;28;20061;-89
2024/03/07 09:27:15;;;;;;;26.25;19.65;;;6.40;99.90;;;;;;5020011;28;20029;-89
2024/03/07 09:29:40;;;;;;;27.02;19.65;;;6.40;99.90;;;;;;5001527;28;20018;-89
2024/03/07 09:32:09;;;;;;;28.75;20.40;;;6.50;99.90;;;;;;5036848;28;20024;-89
2024/03/07 09:34:35;;;;;;;25.98;19.67;;;6.50;99.90;;;;;;5019316;28;20045;-90
2024/03/07 09:37:02;;;;;;;28.88;20.70;;;6.60;99.90;;;;;;5003735;28;20113;-89
2024/03/07 09:39:28;;;;;;;25.95;19.10;;;6.60;99.90;;;;;;5015729;28;20057;-89
2024/03/07 09:41:54;;;;;;;24.60;19.67;;;6.70;99.90;;;;;;5008192;28;20398;-89
2024/03/07 09:44:24;;;;;;;24.30;18.30;;;6.70;99.90;;;;;;4986624;28;20033;-89
2024/03/07 09:46:51;;;;;;;25.80;18.45;;;6.80;99.90;;;;;;5046136;28;20036;-90
2024/03/07 09:49:18;;;;;;;26.50;19.13;;;6.80;99.90;;;;;;5035493;28;20075;-89
2024/03/07 09:51:46;;;;;;;25.00;18.05;;;7.00;99.90;;;;;;5036158;28;20101;-88
2024/03/07 09:54:13;;;;;;;23.50;18.35;;;7.00;99.90;;;;;;5035427;28;20037;-89
2024/03/07 09:56:40;;;;;;;24.85;18.25;;;7.10;99.90;;;;;;5035073;28;20574;-88
2024/03/07 09:59:12;;;;;;;24.17;18.77;;;7.20;99.90;;;;;;5020827;28;20033;-89
2024/03/07 10:01:39;;;;;;;26.45;19.33;;;7.20;99.90;;;;;;5035230;28;20022;-90
2024/03/07 10:04:11;;;;;;;22.45;17.58;;;7.30;99.90;;;;;;5044948;28;20041;-88
2024/03/07 10:06:41;;;;;;;22.25;17.75;;;7.30;99.90;;;;;;5034788;28;20049;-88
2024/03/07 10:09:13;;;;;;;23.27;18.15;;;7.40;99.90;;;;;;5036562;28;20022;-89
2024/03/07 10:11:41;;;;;;;24.50;18.83;;;7.50;99.90;;;;;;5034859;28;20044;-89
2024/03/07 10:14:07;;;;;;;23.00;18.98;;;7.60;99.90;;;;;;4999669;28;20041;-91
2024/03/07 10:16:33;;;;;;;26.17;18.02;;;7.60;99.90;;;;;;5035215;28;20481;-88
2024/03/07 10:19:00;;;;;;;23.65;18.38;;;7.70;99.90;;;;;;5035433;28;20083;-89
2024/03/07 10:21:26;;;;;;;20.85;16.45;;;7.70;99.90;;;;;;5035949;28;20025;-88
2024/03/07 10:24:06;;;;;;;25.75;18.80;;;7.80;99.90;;;;;;5036153;28;20511;-89
2024/03/07 10:26:34;;;;;;;26.50;19.38;;;7.80;99.90;;;;;;5050222;28;20041;-84
2024/03/07 10:29:00;;;;;;;31.77;20.00;;;7.90;99.90;;;;;;5058066;28;20052;-89
2024/03/07 10:31:31;;;;;;;26.23;18.65;;;7.90;99.90;;;;;;5057264;28;20013;-89
2024/03/07 10:34:02;;;;;;;26.20;18.52;;;7.90;99.90;;;;;;5051718;28;20037;-90
2024/03/07 10:36:30;;;;;;;24.73;17.67;;;7.90;99.90;;;;;;5035748;28;20021;-91
2024/03/07 10:39:14;;;;;;;24.20;17.70;;;7.90;99.90;;;;;;5051885;28;20036;-89
2024/03/07 10:41:48;;;;;;;26.33;19.35;;;8.00;99.90;;;;;;5040164;28;20418;-90
2024/03/07 10:44:44;;;;;;;25.52;19.13;;;8.00;99.90;;;;;;5037150;28;20033;-89
2024/03/07 10:47:18;;;;;;;27.25;19.90;;;7.90;99.90;;;;;;5021213;28;20034;-90
2024/03/07 10:50:14;;;;;;;23.98;19.13;;;7.80;99.90;;;;;;5031776;28;20021;-90
2024/03/07 10:52:45;;;;;;;25.98;18.40;;;7.70;99.90;;;;;;5035540;28;20013;-89
2024/03/07 10:55:40;;;;;;;24.63;18.92;;;7.70;99.90;;;;;;5044590;28;20026;-89
2024/03/07 10:58:37;;;;;;;24.65;18.27;;;7.70;99.90;;;;;;5015723;28;20034;-90
2024/03/07 11:01:05;;;;;;;22.65;17.77;;;7.80;99.90;;;;;;5043476;28;20036;-91
2024/03/07 11:03:33;;;;;;;24.63;19.27;;;7.90;99.90;;;;;;5042628;28;20487;-90
2024/03/07 11:06:06;;;;;;;24.98;18.73;;;7.90;99.90;;;;;;5030572;28;20389;-90
2024/03/07 11:08:36;;;;;;;24.40;17.33;;;8.00;99.90;;;;;;5035243;28;20028;-91
2024/03/07 11:11:06;;;;;;;24.37;18.17;;;8.10;99.90;;;;;;5020995;28;20025;-90
2024/03/07 11:13:34;;;;;;;24.55;18.30;;;8.10;99.90;;;;;;5038571;28;20350;-91
2024/03/07 11:16:01;;;;;;;27.00;18.42;;;8.20;99.90;;;;;;5054651;28;20028;-90
2024/03/07 11:18:30;;;;;;;23.17;17.13;;;8.20;99.90;;;;;;4998160;28;20074;-90
2024/03/07 11:20:57;;;;;;;24.38;18.33;;;8.20;99.90;;;;;;5026082;28;20033;-89
2024/03/07 11:23:38;;;;;;;26.30;17.90;;;8.30;99.90;;;;;;5016949;28;20056;-90
2024/03/07 11:26:08;;;;;;;26.88;18.13;;;8.30;99.90;;;;;;5032722;28;20033;-91
2024/03/07 11:28:40;;;;;;;24.77;18.65;;;8.30;99.90;;;;;;5017738;28;20485;-91
2024/03/07 11:31:18;;;;;;;23.77;17.50;;;8.40;99.90;;;;;;5018210;28;20392;-91
2024/03/07 11:34:22;;;;;;;25.00;17.08;;;8.50;99.90;;;;;;5033967;28;20044;-90
2024/03/07 11:36:55;;;;;;;25.13;17.70;;;8.50;99.90;;;;;;5034584;28;20033;-92
2024/03/07 11:39:47;;;;;;;27.27;18.83;;;8.50;99.90;;;;;;5035802;28;20384;-91
2024/03/07 11:42:31;;;;;;;25.73;16.70;;;8.50;99.90;;;;;;5035163;28;20021;-90
2024/03/07 11:44:58;;;;;;;24.83;16.55;;;8.50;99.90;;;;;;5020395;28;20025;-92
2024/03/07 11:47:37;;;;;;;23.23;17.63;;;8.60;99.90;;;;;;5039178;28;20022;-91
2024/03/07 11:50:19;;;;;;;25.42;18.23;;;8.60;99.90;;;;;;5020381;28;20129;-90
2024/03/07 11:52:46;;;;;;;25.60;18.02;;;8.70;99.90;;;;;;5056669;28;20025;-88
2024/03/07 11:55:12;;;;;;;22.20;17.40;;;8.70;99.90;;;;;;5057180;28;20014;-92
2024/03/07 11:57:40;;;;;;;28.77;18.20;;;8.80;99.90;;;;;;5057098;28;20021;-89
2024/03/07 12:00:12;;;;;;;24.70;17.30;;;8.80;99.50;;;;;;5046127;28;20496;-91
2024/03/07 12:02:39;;;;;;;21.42;16.08;;;8.80;99.60;;;;;;5034945;28;20025;-90
2024/03/07 12:05:08;;;;;;;22.85;16.83;;;8.90;99.90;;;;;;5036049;28;20022;-92
2024/03/07 12:07:34;;;;;;;24.52;17.52;;;8.90;99.70;;;;;;5038007;28;20028;-91
2024/03/07 12:10:04;;;;;;;23.80;17.48;;;8.90;99.80;;;;;;5038111;28;20025;-91
2024/03/07 12:12:31;;;;;;;25.30;16.25;;;9.00;99.90;;;;;;5037544;28;20037;-92
2024/03/07 12:14:57;;;;;;;22.67;16.73;;;9.00;99.90;;;;;;5038775;28;20384;-91
2024/03/07 12:17:23;;;;;;;22.95;15.40;;;9.00;99.90;;;;;;5052886;28;20017;-89
2024/03/07 12:19:53;;;;;;;19.75;15.60;;;9.10;99.90;;;;;;5044975;28;20022;-91
2024/03/07 12:22:24;;;;;;;19.67;14.50;;;9.00;99.80;;;;;;5037346;28;20044;-92
2024/03/07 12:25:05;;;;;;;20.52;15.57;;;9.00;99.90;;;;;;5037049;28;20105;-90
2024/03/07 12:27:34;;;;;;;18.42;13.90;;;9.00;99.50;;;;;;5038545;28;20469;-90
2024/03/07 12:34:04;;;;;;;18.05;14.35;;;8.90;99.90;;;;;;4975691;28;20025;-91
2024/03/07 12:36:45;;;;;;;19.27;15.20;;;9.10;99.90;;;;;;5037378;28;20036;-93
2024/03/07 12:39:46;;;;;;;19.25;14.75;;;9.10;99.90;;;;;;5037415;28;20033;-92
2024/03/07 12:42:20;;;;;;;19.33;14.57;;;9.20;99.90;;;;;;4942402;29;20035;-93
2024/03/07 12:44:46;;;;;;;22.23;15.88;;;9.20;99.90;;;;;;5022528;28;20037;-91
2024/03/07 12:47:16;;;;;;;19.70;15.15;;;9.30;99.90;;;;;;5037385;28;20029;-92